createdAt,value
2023-03-15T00:01:27.705Z,58.40
2023-03-15T00:03:56.552Z,58.30
2023-03-15T00:06:25.268Z,58.30
2023-03-15T00:08:55.486Z,58.30
2023-03-15T00:11:24.533Z,58.40
2023-03-15T00:13:53.148Z,58.40
2023-03-15T00:16:21.586Z,58.10
2023-03-15T00:18:50.138Z,58.10
2023-03-15T00:21:18.439Z,58.10
2023-03-15T00:23:47.380Z,58.10
2023-03-15T00:26:17.306Z,58.10
2023-03-15T00:28:45.798Z,58.10
2023-03-15T00:31:18.380Z,58.20
2023-03-15T00:33:48.232Z,58.20
2023-03-15T00:36:17.378Z,58.00
2023-03-15T00:38:45.800Z,57.90
2023-03-15T00:41:17.805Z,57.80
2023-03-15T00:43:48.392Z,58.00
2023-03-15T00:46:18.345Z,57.80
2023-03-15T00:48:49.919Z,57.90
2023-03-15T00:51:21.403Z,58.00
2023-03-15T00:53:51.627Z,58.00
2023-03-15T00:56:24.293Z,58.00
2023-03-15T00:58:53.882Z,58.10
2023-03-15T01:01:25.349Z,58.10
2023-03-15T01:03:54.420Z,58.10
2023-03-15T01:06:25.455Z,58.10
2023-03-15T01:08:55.879Z,58.10
2023-03-15T01:11:29.380Z,58.10
2023-03-15T01:14:00.284Z,58.00
2023-03-15T01:16:29.642Z,58.10
2023-03-15T01:18:58.240Z,58.10
2023-03-15T01:21:27.075Z,58.20
2023-03-15T01:23:56.349Z,58.30
2023-03-15T01:26:26.971Z,58.20
2023-03-15T01:28:56.238Z,58.20
2023-03-15T01:31:27.583Z,58.10
2023-03-15T01:33:56.286Z,58.10
2023-03-15T01:36:25.560Z,58.10
2023-03-15T01:38:55.066Z,58.20
2023-03-15T01:41:30.437Z,58.10
2023-03-15T01:43:58.810Z,58.10
2023-03-15T01:46:29.690Z,58.10
2023-03-15T01:49:09.007Z,58.10
2023-03-15T01:51:46.275Z,58.20
2023-03-15T01:54:21.142Z,58.20
2023-03-15T01:56:58.546Z,58.20
2023-03-15T01:59:32.210Z,58.30
2023-03-15T02:02:02.100Z,58.40
2023-03-15T02:04:35.232Z,58.20
2023-03-15T02:07:06.579Z,58.30
2023-03-15T02:09:45.879Z,58.40
2023-03-15T02:12:15.784Z,58.40
2023-03-15T02:14:44.356Z,58.50
2023-03-15T02:17:16.933Z,58.60
2023-03-15T02:19:57.953Z,58.50
2023-03-15T02:22:40.870Z,58.50
2023-03-15T02:25:19.869Z,58.50
2023-03-15T02:27:49.815Z,58.60
2023-03-15T02:30:18.344Z,58.50
2023-03-15T02:32:46.813Z,58.50
2023-03-15T02:35:25.143Z,58.50
2023-03-15T02:37:54.373Z,58.60
2023-03-15T02:40:27.778Z,58.60
2023-03-15T02:43:01.987Z,58.50
2023-03-15T02:45:33.694Z,58.40
2023-03-15T02:48:05.930Z,58.80
2023-03-15T02:50:34.656Z,58.20
2023-03-15T02:53:03.868Z,58.00
2023-03-15T02:55:33.087Z,58.00
2023-03-15T02:58:03.484Z,58.20
2023-03-15T03:00:32.070Z,58.10
2023-03-15T03:03:00.497Z,58.10
2023-03-15T03:05:28.986Z,58.20
2023-03-15T03:07:57.423Z,58.30
2023-03-15T03:10:25.989Z,58.10
2023-03-15T03:12:57.647Z,58.10
2023-03-15T03:15:36.643Z,58.00
2023-03-15T03:18:05.606Z,58.00
2023-03-15T03:20:34.056Z,58.00
2023-03-15T03:23:05.949Z,57.90
2023-03-15T03:25:36.685Z,58.00
2023-03-15T03:28:05.122Z,57.90
2023-03-15T03:30:37.783Z,57.90
2023-03-15T03:33:06.622Z,58.00
2023-03-15T03:35:34.976Z,57.90
2023-03-15T03:38:03.443Z,57.90
2023-03-15T03:40:37.354Z,57.90
2023-03-15T03:43:08.257Z,57.90
2023-03-15T03:45:38.064Z,58.00
2023-03-15T03:48:09.037Z,58.00
2023-03-15T03:50:37.326Z,58.00
2023-03-15T03:53:05.726Z,57.90
2023-03-15T03:55:36.341Z,57.80
2023-03-15T03:58:04.687Z,57.80
2023-03-15T04:00:42.789Z,57.80
2023-03-15T04:03:12.072Z,58.50
2023-03-15T04:05:44.184Z,57.80
2023-03-15T04:08:17.655Z,57.80
2023-03-15T04:10:46.148Z,57.90
2023-03-15T04:13:15.068Z,57.90
2023-03-15T04:15:44.868Z,57.90
2023-03-15T04:18:13.394Z,58.00
2023-03-15T04:20:46.748Z,58.00
2023-03-15T04:23:16.139Z,58.00
2023-03-15T04:26:00.609Z,58.50
2023-03-15T04:28:59.979Z,58.00
2023-03-15T04:31:49.917Z,58.10
2023-03-15T04:34:28.460Z,58.00
2023-03-15T04:37:03.476Z,58.00
2023-03-15T04:39:52.537Z,58.10
2023-03-15T04:42:31.435Z,58.10
2023-03-15T04:45:35.436Z,58.10
2023-03-15T04:48:23.808Z,58.10
2023-03-15T04:51:21.903Z,58.10
2023-03-15T04:54:25.691Z,58.10
2023-03-15T04:57:12.510Z,58.00
2023-03-15T04:59:54.651Z,58.00
2023-03-15T05:02:55.070Z,58.00
2023-03-15T05:05:46.441Z,58.10
2023-03-15T05:08:40.887Z,58.40
2023-03-15T05:11:19.531Z,58.00
2023-03-15T05:14:00.541Z,58.00
2023-03-15T05:16:34.929Z,58.00
2023-03-15T05:19:14.187Z,58.00
2023-03-15T05:22:03.703Z,57.90
2023-03-15T05:24:55.464Z,58.00
2023-03-15T05:27:39.586Z,58.00
2023-03-15T05:30:26.700Z,58.20
2023-03-15T05:33:14.057Z,58.10
2023-03-15T05:35:49.858Z,58.20
2023-03-15T05:38:40.215Z,58.10
2023-03-15T05:41:19.207Z,58.00
2023-03-15T05:43:56.471Z,58.10
2023-03-15T05:46:36.794Z,58.10
2023-03-15T05:49:40.617Z,58.10
2023-03-15T05:52:27.715Z,58.00
2023-03-15T05:55:08.646Z,58.00
2023-03-15T05:57:55.306Z,58.00
2023-03-15T06:00:42.348Z,58.00
2023-03-15T06:03:22.344Z,58.10
2023-03-15T06:05:59.727Z,58.00
2023-03-15T06:08:38.336Z,58.00
2023-03-15T06:11:08.704Z,58.10
2023-03-15T06:13:37.058Z,58.10
2023-03-15T06:16:11.501Z,58.10
2023-03-15T06:18:44.290Z,58.10
2023-03-15T06:21:12.687Z,58.10
2023-03-15T06:23:41.353Z,58.70
2023-03-15T06:26:11.039Z,58.20
2023-03-15T06:28:39.514Z,58.30
2023-03-15T06:31:09.481Z,58.30
2023-03-15T06:33:45.087Z,58.30
2023-03-15T06:36:14.332Z,58.30
2023-03-15T06:38:43.343Z,58.30
2023-03-15T06:41:15.649Z,58.40
2023-03-15T06:43:44.435Z,58.30
2023-03-15T06:46:14.251Z,58.30
2023-03-15T06:48:43.659Z,58.30
2023-03-15T06:51:13.504Z,58.40
2023-03-15T06:53:56.239Z,58.60
2023-03-15T06:56:26.134Z,58.60
2023-03-15T06:58:54.467Z,58.60
2023-03-15T07:01:22.812Z,58.60
2023-03-15T07:03:51.251Z,58.60
2023-03-15T07:06:19.550Z,58.60
2023-03-15T07:08:47.892Z,58.50
2023-03-15T07:11:16.290Z,58.50
2023-03-15T07:13:45.991Z,58.50
2023-03-15T07:16:14.347Z,58.50
2023-03-15T07:18:42.786Z,58.50
2023-03-15T07:21:11.160Z,58.50
2023-03-15T07:23:39.569Z,58.50
2023-03-15T07:26:07.968Z,58.60
2023-03-15T07:28:36.313Z,58.60
2023-03-15T07:31:07.531Z,59.10
2023-03-15T07:33:37.721Z,58.50
2023-03-15T07:36:08.132Z,58.50
2023-03-15T07:38:37.133Z,58.50
2023-03-15T07:41:07.316Z,58.40
2023-03-15T07:43:38.757Z,58.50
2023-03-15T07:46:14.750Z,58.60
2023-03-15T07:48:43.261Z,58.60
2023-03-15T07:51:11.564Z,58.40
2023-03-15T07:53:39.897Z,58.30
2023-03-15T07:56:08.791Z,58.40
2023-03-15T07:58:37.131Z,58.40
2023-03-15T08:01:05.756Z,58.50
2023-03-15T08:03:36.279Z,58.50
2023-03-15T08:06:04.900Z,58.50
2023-03-15T08:08:33.228Z,58.40
2023-03-15T08:11:01.645Z,58.60
2023-03-15T08:13:30.226Z,58.40
2023-03-15T08:15:58.659Z,58.40
2023-03-15T08:18:28.975Z,58.10
2023-03-15T08:20:59.283Z,58.20
2023-03-15T08:23:27.776Z,58.20
2023-03-15T08:25:56.140Z,58.10
2023-03-15T08:28:24.425Z,58.10
2023-03-15T08:30:52.846Z,58.00
2023-03-15T08:33:22.332Z,58.10
2023-03-15T08:35:54.321Z,58.20
2023-03-15T08:38:24.573Z,58.40
2023-03-15T08:40:57.574Z,58.30
2023-03-15T08:43:26.369Z,58.30
2023-03-15T08:46:01.221Z,58.30
2023-03-15T08:48:30.322Z,58.20
2023-03-15T08:51:03.490Z,58.20
2023-03-15T08:53:34.311Z,58.30
2023-03-15T08:56:03.132Z,58.40
2023-03-15T08:58:31.438Z,58.50
2023-03-15T09:00:59.849Z,58.60
2023-03-15T09:03:28.213Z,58.70
2023-03-15T09:05:58.193Z,58.80
2023-03-15T09:08:27.486Z,58.80
2023-03-15T09:10:57.810Z,58.80
2023-03-15T09:13:27.085Z,58.70
2023-03-15T09:15:57.139Z,58.80
2023-03-15T09:18:25.882Z,58.90
2023-03-15T09:20:55.014Z,58.90
2023-03-15T09:23:24.272Z,58.90
2023-03-15T09:25:52.636Z,58.90
2023-03-15T09:28:22.282Z,58.90
2023-03-15T09:30:50.729Z,58.80
2023-03-15T09:33:19.391Z,58.80
2023-03-15T09:35:47.686Z,58.90
2023-03-15T09:38:16.083Z,58.90
2023-03-15T09:40:46.250Z,59.00
2023-03-15T09:44:00.275Z,59.10
2023-03-15T09:46:32.407Z,59.00
2023-03-15T09:49:10.329Z,58.90
2023-03-15T09:51:43.255Z,58.90
2023-03-15T09:54:18.090Z,58.80
2023-03-15T09:56:55.967Z,58.70
2023-03-15T09:59:35.211Z,59.00
2023-03-15T10:02:19.111Z,58.80
2023-03-15T10:04:48.818Z,58.90
2023-03-15T10:07:17.626Z,59.00
2023-03-15T10:09:46.818Z,59.00
2023-03-15T10:12:17.949Z,59.10
2023-03-15T10:15:17.935Z,59.00
2023-03-15T10:17:58.933Z,59.00
2023-03-15T10:20:30.934Z,59.00
2023-03-15T10:23:06.896Z,58.90
2023-03-15T10:25:36.864Z,58.90
2023-03-15T10:28:11.675Z,58.90
2023-03-15T10:30:49.274Z,58.80
2023-03-15T10:33:26.739Z,58.90
2023-03-15T10:36:04.288Z,58.70
2023-03-15T10:38:36.092Z,58.30
2023-03-15T10:41:08.857Z,58.20
2023-03-15T10:43:40.033Z,58.20
2023-03-15T10:46:12.285Z,58.10
2023-03-15T10:48:42.782Z,58.20
2023-03-15T10:51:21.982Z,58.10
2023-03-15T10:53:57.426Z,57.80
2023-03-15T10:56:28.780Z,57.70
2023-03-15T10:59:11.372Z,57.90
2023-03-15T11:01:42.426Z,57.90
2023-03-15T11:04:20.167Z,57.80
2023-03-15T11:06:52.671Z,57.80
2023-03-15T11:09:23.880Z,57.70
2023-03-15T11:12:02.441Z,57.60
2023-03-15T11:14:37.807Z,57.80
2023-03-15T11:17:19.955Z,57.80
2023-03-15T11:19:57.025Z,58.00
2023-03-15T11:22:25.857Z,58.20
2023-03-15T11:24:55.721Z,58.40
2023-03-15T11:27:25.564Z,58.30
2023-03-15T11:29:58.303Z,58.30
2023-03-15T11:32:31.603Z,58.10
2023-03-15T11:35:05.715Z,58.10
2023-03-15T11:37:39.592Z,58.00
2023-03-15T11:40:18.718Z,57.80
2023-03-15T11:42:54.540Z,57.80
2023-03-15T11:45:33.323Z,57.50
2023-03-15T11:48:29.288Z,57.30
2023-03-15T11:50:59.471Z,57.40
2023-03-15T11:53:34.393Z,57.60
2023-03-15T11:56:23.479Z,57.60
2023-03-15T11:59:08.722Z,57.50
2023-03-15T12:01:37.357Z,57.40
2023-03-15T12:04:44.444Z,57.40
2023-03-15T12:07:34.971Z,57.50
2023-03-15T12:10:46.586Z,58.00
2023-03-15T12:13:29.952Z,58.20
2023-03-15T12:15:59.402Z,58.20
2023-03-15T12:18:40.618Z,58.10
2023-03-15T12:21:15.452Z,57.90
2023-03-15T12:23:49.531Z,58.00
2023-03-15T12:26:38.142Z,58.10
2023-03-15T12:29:17.181Z,58.10
2023-03-15T12:31:53.176Z,58.00
2023-03-15T12:34:47.043Z,57.80
2023-03-15T12:37:21.915Z,57.80
2023-03-15T12:39:52.604Z,57.80
2023-03-15T12:43:10.154Z,57.90
2023-03-15T12:45:46.799Z,57.80
2023-03-15T12:48:27.326Z,58.30
2023-03-15T12:51:05.738Z,57.40
2023-03-15T12:53:49.315Z,57.50
2023-03-15T12:56:47.640Z,57.50
2023-03-15T12:59:46.205Z,57.60
2023-03-15T13:02:42.613Z,57.60
2023-03-15T13:05:24.908Z,57.60
2023-03-15T13:08:06.610Z,57.30
2023-03-15T13:10:48.681Z,57.00
2023-03-15T13:13:34.432Z,56.60
2023-03-15T13:16:18.787Z,56.50
2023-03-15T13:19:00.881Z,55.90
2023-03-15T13:21:35.650Z,56.10
2023-03-15T13:24:11.509Z,56.20
2023-03-15T13:26:51.057Z,56.00
2023-03-15T13:29:23.719Z,56.00
2023-03-15T13:32:04.309Z,55.80
2023-03-15T13:34:34.508Z,55.80
2023-03-15T13:37:03.382Z,55.40
2023-03-15T13:39:33.950Z,55.00
2023-03-15T13:42:07.244Z,55.00
2023-03-15T13:44:35.568Z,55.10
2023-03-15T13:47:04.019Z,55.30
2023-03-15T13:49:34.497Z,55.40
2023-03-15T13:52:12.194Z,55.60
2023-03-15T13:54:44.428Z,55.80
2023-03-15T13:57:17.100Z,56.00
2023-03-15T13:59:49.066Z,56.20
2023-03-15T14:02:21.607Z,56.50
2023-03-15T14:04:54.745Z,56.60
2023-03-15T14:07:30.808Z,56.80
2023-03-15T14:10:22.582Z,56.80
2023-03-15T14:12:53.760Z,56.80
2023-03-15T14:15:26.885Z,56.90
2023-03-15T14:18:03.894Z,57.00
2023-03-15T14:20:38.483Z,57.10
2023-03-15T14:23:12.233Z,57.10
2023-03-15T14:25:40.830Z,57.10
2023-03-15T14:28:16.963Z,57.20
2023-03-15T14:30:54.031Z,57.40
2023-03-15T14:33:32.738Z,57.60
2023-03-15T14:36:04.561Z,57.70
2023-03-15T14:38:36.266Z,57.80
2023-03-15T14:41:25.901Z,58.00
2023-03-15T14:43:55.669Z,58.10
2023-03-15T14:46:24.179Z,58.20
2023-03-15T14:48:52.985Z,58.30
2023-03-15T14:51:23.418Z,58.40
2023-03-15T14:53:56.257Z,58.30
2023-03-15T14:56:25.501Z,58.30
2023-03-15T14:58:55.416Z,58.20
2023-03-15T15:01:28.133Z,58.20
2023-03-15T15:04:01.627Z,58.10
2023-03-15T15:06:33.014Z,58.10
2023-03-15T15:09:05.888Z,57.60
2023-03-15T15:11:34.388Z,57.30
2023-03-15T15:14:04.084Z,57.00
2023-03-15T15:16:32.451Z,56.90
2023-03-15T15:19:00.725Z,57.30
2023-03-15T15:21:34.061Z,57.20
2023-03-15T15:24:03.934Z,57.50
2023-03-15T15:26:34.507Z,57.60
2023-03-15T15:29:04.233Z,57.70
2023-03-15T15:31:34.410Z,57.80
2023-03-15T15:34:03.016Z,58.00
2023-03-15T15:36:34.405Z,58.20
2023-03-15T15:39:07.110Z,58.20
2023-03-15T15:41:36.483Z,58.30
2023-03-15T15:44:12.528Z,58.40
2023-03-15T15:46:40.827Z,58.40
2023-03-15T15:49:09.202Z,58.40
2023-03-15T15:51:41.687Z,58.40
2023-03-15T15:54:16.830Z,58.50
2023-03-15T15:56:50.364Z,58.50
2023-03-15T15:59:20.668Z,58.50
2023-03-15T16:02:00.188Z,58.60
2023-03-15T16:04:30.311Z,58.50
2023-03-15T16:07:01.792Z,58.40
2023-03-15T16:09:33.299Z,58.40
2023-03-15T16:12:01.702Z,58.40
2023-03-15T16:14:31.299Z,58.40
2023-03-15T16:16:59.731Z,58.30
2023-03-15T16:19:28.030Z,58.30
2023-03-15T16:21:56.378Z,58.20
2023-03-15T16:24:28.922Z,58.20
2023-03-15T16:27:02.258Z,58.20
2023-03-15T16:29:38.765Z,58.00
2023-03-15T16:32:19.001Z,57.70
2023-03-15T16:34:49.458Z,57.50
2023-03-15T16:37:21.620Z,57.40
2023-03-15T16:39:52.661Z,57.30
2023-03-15T16:42:21.453Z,57.20
2023-03-15T16:44:51.876Z,57.10
2023-03-15T16:47:21.144Z,57.00
2023-03-15T16:49:49.510Z,56.90
2023-03-15T16:52:18.470Z,56.90
2023-03-15T16:54:48.821Z,56.90
2023-03-15T16:57:22.997Z,56.90
2023-03-15T16:59:53.382Z,56.90
2023-03-15T17:02:24.770Z,56.80
2023-03-15T17:04:53.694Z,56.80
2023-03-15T17:07:27.762Z,56.80
2023-03-15T17:09:56.236Z,56.80
2023-03-15T17:12:28.734Z,56.80
2023-03-15T17:15:00.214Z,56.90
2023-03-15T17:17:33.136Z,56.90
2023-03-15T17:20:02.203Z,57.10
2023-03-15T17:22:30.851Z,56.90
2023-03-15T17:25:00.154Z,56.90
2023-03-15T17:27:35.890Z,56.90
2023-03-15T17:30:17.572Z,57.10
2023-03-15T17:32:46.016Z,57.00
2023-03-15T17:35:15.169Z,57.10
2023-03-15T17:37:44.827Z,57.20
2023-03-15T17:40:23.267Z,57.10
2023-03-15T17:42:52.668Z,57.10
2023-03-15T17:45:24.834Z,57.10
2023-03-15T17:47:54.510Z,57.10
2023-03-15T17:50:24.970Z,57.20
2023-03-15T17:52:57.130Z,57.30
2023-03-15T17:55:27.618Z,57.40
2023-03-15T17:57:56.554Z,57.40
2023-03-15T18:00:27.586Z,57.30
2023-03-15T18:02:56.770Z,57.30
2023-03-15T18:05:27.636Z,57.30
2023-03-15T18:08:00.084Z,57.50
2023-03-15T18:10:35.278Z,57.30
2023-03-15T18:13:05.064Z,57.30
2023-03-15T18:15:34.766Z,57.40
2023-03-15T18:18:05.751Z,57.40
2023-03-15T18:20:34.725Z,57.40
2023-03-15T18:23:03.132Z,57.50
2023-03-15T18:25:34.574Z,57.50
2023-03-15T18:28:03.225Z,57.60
2023-03-15T18:30:33.995Z,57.80
2023-03-15T18:33:03.895Z,57.80
2023-03-15T18:35:35.099Z,57.80
2023-03-15T18:38:04.199Z,57.70
2023-03-15T18:40:34.484Z,57.80
2023-03-15T18:43:05.424Z,57.80
2023-03-15T18:45:37.359Z,58.40
2023-03-15T18:48:06.994Z,57.90
2023-03-15T18:50:36.335Z,58.00
2023-03-15T18:53:06.177Z,58.10
2023-03-15T18:55:35.627Z,58.10
2023-03-15T18:58:05.263Z,58.20
2023-03-15T19:00:36.199Z,58.30
2023-03-15T19:03:06.891Z,58.30
2023-03-15T19:05:39.474Z,58.20
2023-03-15T19:08:07.910Z,58.30
2023-03-15T19:10:36.226Z,58.30
2023-03-15T19:13:05.003Z,58.40
2023-03-15T19:15:34.885Z,58.30
2023-03-15T19:18:03.263Z,58.50
2023-03-15T19:20:31.744Z,58.40
2023-03-15T19:23:00.169Z,58.40
2023-03-15T19:25:28.508Z,58.40
2023-03-15T19:27:57.434Z,58.50
2023-03-15T19:30:27.786Z,58.50
2023-03-15T19:32:57.870Z,58.50
2023-03-15T19:35:26.941Z,58.40
2023-03-15T19:37:56.543Z,58.50
2023-03-15T19:40:25.035Z,58.40
2023-03-15T19:42:53.528Z,58.50
2023-03-15T19:45:21.922Z,58.50
2023-03-15T19:47:50.653Z,58.50
2023-03-15T19:50:20.683Z,58.50
2023-03-15T19:52:49.015Z,58.40
2023-03-15T19:55:19.988Z,58.40
2023-03-15T19:57:49.132Z,58.40
2023-03-15T20:00:20.522Z,58.30
2023-03-15T20:02:49.289Z,58.30
2023-03-15T20:05:21.441Z,58.10
2023-03-15T20:07:51.905Z,58.10
2023-03-15T20:10:21.718Z,58.00
2023-03-15T20:12:50.732Z,58.00
2023-03-15T20:15:21.114Z,58.00
2023-03-15T20:17:49.448Z,58.00
2023-03-15T20:20:19.424Z,58.00
2023-03-15T20:22:49.304Z,58.00
2023-03-15T20:25:20.056Z,58.00
2023-03-15T20:27:49.117Z,58.00
2023-03-15T20:30:19.899Z,58.00
2023-03-15T20:32:48.574Z,57.90
2023-03-15T20:35:17.204Z,57.90
2023-03-15T20:37:45.627Z,57.90
2023-03-15T20:40:17.271Z,57.90
2023-03-15T20:42:45.660Z,58.00
2023-03-15T20:45:14.664Z,58.00
2023-03-15T20:47:43.340Z,58.10
2023-03-15T20:50:13.629Z,58.20
2023-03-15T20:52:42.794Z,58.20
2023-03-15T20:55:13.703Z,58.40
2023-03-15T20:57:43.899Z,58.40
2023-03-15T21:00:18.381Z,58.50
2023-03-15T21:02:47.878Z,58.50
2023-03-15T21:05:17.206Z,58.60
2023-03-15T21:07:46.304Z,58.70
2023-03-15T21:10:15.559Z,58.70
2023-03-15T21:12:45.837Z,58.70
2023-03-15T21:15:17.614Z,58.90
2023-03-15T21:17:48.839Z,58.70
2023-03-15T21:20:17.653Z,58.60
2023-03-15T21:22:46.082Z,58.70
2023-03-15T21:25:14.408Z,58.60
2023-03-15T21:27:44.323Z,58.60
2023-03-15T21:30:14.424Z,58.60
2023-03-15T21:32:42.998Z,58.60
2023-03-15T21:35:11.906Z,58.60
2023-03-15T21:37:40.263Z,58.60
2023-03-15T21:40:10.328Z,58.60
2023-03-15T21:42:39.272Z,58.50
2023-03-15T21:45:12.105Z,59.00
2023-03-15T21:47:40.702Z,58.60
2023-03-15T21:50:11.704Z,58.70
2023-03-15T21:52:40.231Z,58.70
2023-03-15T21:55:10.969Z,58.60
2023-03-15T21:57:39.307Z,58.60
2023-03-15T22:00:16.635Z,58.60
2023-03-15T22:02:45.208Z,58.70
2023-03-15T22:05:14.251Z,58.70
2023-03-15T22:07:43.859Z,58.70
2023-03-15T22:10:14.381Z,58.70
2023-03-15T22:12:43.437Z,58.70
2023-03-15T22:15:15.776Z,58.70
2023-03-15T22:17:45.290Z,58.60
2023-03-15T22:20:16.863Z,58.60
2023-03-15T22:22:45.924Z,58.60
2023-03-15T22:25:15.198Z,58.60
2023-03-15T22:27:43.987Z,58.60
2023-03-15T22:30:15.600Z,58.50
2023-03-15T22:32:44.410Z,58.60
2023-03-15T22:35:13.631Z,58.70
2023-03-15T22:37:42.401Z,58.80
2023-03-15T22:40:14.198Z,58.60
2023-03-15T22:42:43.360Z,58.60
2023-03-15T22:45:13.753Z,58.60
2023-03-15T22:47:42.108Z,58.70
2023-03-15T22:50:12.531Z,58.60
2023-03-15T22:52:41.312Z,58.70
2023-03-15T22:55:11.316Z,58.70
2023-03-15T22:57:39.961Z,58.70
2023-03-15T23:00:14.029Z,58.70
2023-03-15T23:02:44.941Z,58.70
2023-03-15T23:05:15.067Z,58.70
2023-03-15T23:07:43.612Z,58.70
2023-03-15T23:10:13.010Z,58.60
2023-03-15T23:12:41.453Z,58.60
2023-03-15T23:15:14.228Z,58.60
2023-03-15T23:17:46.959Z,58.60
2023-03-15T23:20:18.253Z,58.70
2023-03-15T23:22:48.086Z,58.60
2023-03-15T23:25:19.603Z,58.60
2023-03-15T23:27:48.911Z,58.60
2023-03-15T23:30:18.200Z,58.60
2023-03-15T23:32:52.034Z,58.60
2023-03-15T23:35:21.296Z,58.70
2023-03-15T23:37:49.579Z,58.60
2023-03-15T23:40:19.502Z,58.60
2023-03-15T23:42:48.710Z,58.70
2023-03-15T23:45:17.204Z,58.80
2023-03-15T23:47:47.269Z,58.70
2023-03-15T23:50:17.270Z,58.70
2023-03-15T23:52:45.580Z,58.80
2023-03-15T23:55:13.870Z,58.70
2023-03-15T23:57:43.307Z,58.70
